sensor_id;sensor_type;location;lat;lon;timestamp;pressure;altitude;pressure_sealevel;temperature;humidity
15074;BME280;7636;63.884;20.308;2023-03-20T00:02:05;62592.00;;;1.07;100.00
15074;BME280;7636;63.884;20.308;2023-03-20T00:04:32;62621.22;;;1.32;100.00
15074;BME280;7636;63.884;20.308;2023-03-20T00:06:59;62602.09;;;1.02;100.00
15074;BME280;7636;63.884;20.308;2023-03-20T00:09:26;62579.91;;;0.93;100.00
15074;BME280;7636;63.884;20.308;2023-03-20T00:11:54;62603.16;;;1.03;100.00
15074;BME280;7636;63.884;20.308;2023-03-20T00:14:22;62636.88;;;1.34;100.00
15074;BME280;7636;63.884;20.308;2023-03-20T00:16:50;62634.69;;;1.32;100.00
15074;BME280;7636;63.884;20.308;2023-03-20T00:19:19;62619.72;;;1.23;100.00
15074;BME280;7636;63.884;20.308;2023-03-20T00:21:50;62591.34;;;1.04;100.00
15074;BME280;7636;63.884;20.308;2023-03-20T00:24:17;62620.56;;;1.19;100.00
15074;BME280;7636;63.884;20.308;2023-03-20T00:26:45;62630.19;;;1.35;100.00
15074;BME280;7636;63.884;20.308;2023-03-20T00:29:19;62623.81;;;1.22;100.00
15074;BME280;7636;63.884;20.308;2023-03-20T00:31:47;62625.03;;;1.35;100.00
15074;BME280;7636;63.884;20.308;2023-03-20T00:34:17;62615.66;;;1.24;100.00
15074;BME280;7636;63.884;20.308;2023-03-20T00:36:44;62622.19;;;1.21;100.00
15074;BME280;7636;63.884;20.308;2023-03-20T00:39:11;62592.81;;;1.03;100.00
15074;BME280;7636;63.884;20.308;2023-03-20T00:46:58;62606.94;;;1.16;100.00
15074;BME280;7636;63.884;20.308;2023-03-20T00:49:33;62629.25;;;1.27;100.00
15074;BME280;7636;63.884;20.308;2023-03-20T00:52:01;62613.63;;;1.25;100.00
15074;BME280;7636;63.884;20.308;2023-03-20T00:54:30;62628.28;;;1.38;100.00
15074;BME280;7636;63.884;20.308;2023-03-20T00:57:05;62636.72;;;1.41;100.00
15074;BME280;7636;63.884;20.308;2023-03-20T00:59:36;62629.22;;;1.37;100.00
15074;BME280;7636;63.884;20.308;2023-03-20T01:02:03;62624.91;;;1.23;100.00
15074;BME280;7636;63.884;20.308;2023-03-20T01:04:38;62593.38;;;1.03;100.00
15074;BME280;7636;63.884;20.308;2023-03-20T01:07:07;62630.88;;;1.38;100.00
15074;BME280;7636;63.884;20.308;2023-03-20T01:09:36;62635.78;;;1.33;100.00
15074;BME280;7636;63.884;20.308;2023-03-20T01:12:03;62631.44;;;1.29;100.00
15074;BME280;7636;63.884;20.308;2023-03-20T01:14:30;62599.06;;;1.14;100.00
15074;BME280;7636;63.884;20.308;2023-03-20T01:16:57;62615.22;;;1.26;100.00
15074;BME280;7636;63.884;20.308;2023-03-20T01:19:24;62596.09;;;1.06;100.00
15074;BME280;7636;63.884;20.308;2023-03-20T01:21:50;62618.38;;;1.27;100.00
15074;BME280;7636;63.884;20.308;2023-03-20T01:24:17;62591.88;;;1.04;100.00
15074;BME280;7636;63.884;20.308;2023-03-20T01:26:44;62621.63;;;1.20;100.00
15074;BME280;7636;63.884;20.308;2023-03-20T01:29:19;62629.38;;;1.39;100.00
15074;BME280;7636;63.884;20.308;2023-03-20T01:31:46;62626.25;;;1.39;100.00
15074;BME280;7636;63.884;20.308;2023-03-20T01:34:13;62636.88;;;1.34;100.00
15074;BME280;7636;63.884;20.308;2023-03-20T01:36:49;62626.94;;;1.32;100.00
15074;BME280;7636;63.884;20.308;2023-03-20T01:39:18;62614.44;;;1.21;100.00
15074;BME280;7636;63.884;20.308;2023-03-20T01:41:47;62621.63;;;1.20;100.00
15074;BME280;7636;63.884;20.308;2023-03-20T01:44:22;62634.16;;;1.32;100.00
15074;BME280;7636;63.884;20.308;2023-03-20T01:46:51;62615.66;;;1.24;100.00
15074;BME280;7636;63.884;20.308;2023-03-20T01:51:50;62621.34;;;1.34;100.00
15074;BME280;7636;63.884;20.308;2023-03-20T01:54:24;62610.22;;;1.19;100.00
15074;BME280;7636;63.884;20.308;2023-03-20T01:57:19;62624.34;;;1.32;100.00
15074;BME280;7636;63.884;20.308;2023-03-20T02:00:12;62618.38;;;1.17;100.00
15074;BME280;7636;63.884;20.308;2023-03-20T02:02:43;62589.56;;;1.00;100.00
15074;BME280;7636;63.884;20.308;2023-03-20T02:05:12;62608.59;;;1.18;100.00
15074;BME280;7636;63.884;20.308;2023-03-20T02:07:45;62605.34;;;1.05;100.00
15074;BME280;7636;63.884;20.308;2023-03-20T02:10:15;62616.75;;;1.16;100.00
15074;BME280;7636;63.884;20.308;2023-03-20T02:12:42;62599.91;;;1.00;100.00
15074;BME280;7636;63.884;20.308;2023-03-20T02:15:10;62560.25;;;0.73;100.00
15074;BME280;7636;63.884;20.308;2023-03-20T02:17:40;62571.13;;;0.83;100.00
15074;BME280;7636;63.884;20.308;2023-03-20T02:39:52;62576.53;;;0.88;100.00
15074;BME280;7636;63.884;20.308;2023-03-20T02:42:34;62579.78;;;0.91;100.00
15074;BME280;7636;63.884;20.308;2023-03-20T02:45:18;62577.22;;;0.91;100.00
15074;BME280;7636;63.884;20.308;2023-03-20T02:47:54;62570.56;;;0.82;100.00
15074;BME280;7636;63.884;20.308;2023-03-20T02:50:51;62560.38;;;0.75;100.00
15074;BME280;7636;63.884;20.308;2023-03-20T02:53:47;62555.91;;;0.69;100.00
15074;BME280;7636;63.884;20.308;2023-03-20T02:56:33;62560.78;;;0.64;100.00
15074;BME280;7636;63.884;20.308;2023-03-20T02:59:23;62554.81;;;0.68;100.00
15074;BME280;7636;63.884;20.308;2023-03-20T03:01:59;62567.84;;;0.70;100.00
15074;BME280;7636;63.884;20.308;2023-03-20T03:04:32;62550.47;;;0.54;100.00
15074;BME280;7636;63.884;20.308;2023-03-20T03:07:02;62534.72;;;0.39;100.00
15074;BME280;7636;63.884;20.308;2023-03-20T03:09:39;62516.38;;;0.34;100.00
15074;BME280;7636;63.884;20.308;2023-03-20T03:12:15;62546.13;;;0.50;100.00
15074;BME280;7636;63.884;20.308;2023-03-20T03:14:49;62531.31;;;0.43;100.00
15074;BME280;7636;63.884;20.308;2023-03-20T03:17:21;62539.59;;;0.53;100.00
15074;BME280;7636;63.884;20.308;2023-03-20T03:19:52;62546.13;;;0.60;100.00
15074;BME280;7636;63.884;20.308;2023-03-20T03:22:19;62503.38;;;0.22;100.00
15074;BME280;7636;63.884;20.308;2023-03-20T03:24:48;62525.47;;;0.40;100.00
15074;BME280;7636;63.884;20.308;2023-03-20T03:27:27;62543.94;;;0.58;100.00
15074;BME280;7636;63.884;20.308;2023-03-20T03:29:56;62537.56;;;0.54;100.00
15074;BME280;7636;63.884;20.308;2023-03-20T03:32:35;62536.34;;;0.41;100.00
15074;BME280;7636;63.884;20.308;2023-03-20T03:35:04;62538.09;;;0.55;100.00
15074;BME280;7636;63.884;20.308;2023-03-20T03:38:00;62555.91;;;0.69;100.00
15074;BME280;7636;63.884;20.308;2023-03-20T03:43:17;62561.31;;;0.74;100.00
15074;BME280;7636;63.884;20.308;2023-03-20T03:45:50;62556.44;;;0.69;100.00
15074;BME280;7636;63.884;20.308;2023-03-20T03:48:23;62548.56;;;0.67;100.00
15074;BME280;7636;63.884;20.308;2023-03-20T03:50:58;62542.31;;;0.46;100.00
15074;BME280;7636;63.884;20.308;2023-03-20T03:53:34;62547.22;;;0.51;100.00
15074;BME280;7636;63.884;20.308;2023-03-20T03:56:04;62567.84;;;0.70;100.00
15074;BME280;7636;63.884;20.308;2023-03-20T04:01:03;62542.47;;;0.59;100.00
15074;BME280;7636;63.884;20.308;2023-03-20T04:03:37;62527.13;;;0.42;100.00
15074;BME280;7636;63.884;20.308;2023-03-20T04:06:05;62546.81;;;0.63;100.00
15074;BME280;7636;63.884;20.308;2023-03-20T04:08:35;62543.00;;;0.59;100.00
15074;BME280;7636;63.884;20.308;2023-03-20T04:11:02;62515.28;;;0.33;100.00
15074;BME280;7636;63.884;20.308;2023-03-20T04:13:28;62509.19;;;0.25;100.00
15074;BME280;7636;63.884;20.308;2023-03-20T04:15:55;62507.72;;;0.26;100.00
15074;BME280;7636;63.884;20.308;2023-03-20T04:18:22;62490.88;;;0.11;100.00
15074;BME280;7636;63.884;20.308;2023-03-20T04:20:50;62520.63;;;0.26;100.00
15074;BME280;7636;63.884;20.308;2023-03-20T04:23:17;62509.75;;;0.26;100.00
15074;BME280;7636;63.884;20.308;2023-03-20T04:25:44;62509.19;;;0.25;100.00
15074;BME280;7636;63.884;20.308;2023-03-20T04:28:11;62527.25;;;0.44;100.00
15074;BME280;7636;63.884;20.308;2023-03-20T04:30:37;62504.44;;;0.23;100.00
15074;BME280;7636;63.884;20.308;2023-03-20T04:33:04;62502.53;;;0.17;100.00
15074;BME280;7636;63.884;20.308;2023-03-20T04:35:31;62526.16;;;0.43;100.00
15074;BME280;7636;63.884;20.308;2023-03-20T04:37:57;62539.59;;;0.44;100.00
15074;BME280;7636;63.884;20.308;2023-03-20T04:40:24;62530.38;;;0.35;100.00
15074;BME280;7636;63.884;20.308;2023-03-20T04:42:51;62518.97;;;0.25;100.00
15074;BME280;7636;63.884;20.308;2023-03-20T04:45:17;62508.38;;;0.29;100.00
15074;BME280;7636;63.884;20.308;2023-03-20T04:47:45;62484.78;;;0.03;100.00
15074;BME280;7636;63.884;20.308;2023-03-20T04:50:12;62501.06;;;0.18;100.00
15074;BME280;7636;63.884;20.308;2023-03-20T04:52:39;62488.16;;;0.08;100.00
15074;BME280;7636;63.884;20.308;2023-03-20T04:55:06;62497.25;;;0.14;100.00
15074;BME280;7636;63.884;20.308;2023-03-20T04:57:33;62497.94;;;0.17;100.00
15074;BME280;7636;63.884;20.308;2023-03-20T05:00:00;62507.16;;;0.26;100.00
15074;BME280;7636;63.884;20.308;2023-03-20T05:02:26;62499.56;;;0.19;100.00
15074;BME280;7636;63.884;20.308;2023-03-20T05:04:53;62483.81;;;0.04;100.00
15074;BME280;7636;63.884;20.308;2023-03-20T05:07:20;62464.69;;;-0.26;100.00
15074;BME280;7636;63.884;20.308;2023-03-20T05:09:47;62480.44;;;-0.11;100.00
15074;BME280;7636;63.884;20.308;2023-03-20T05:12:13;62489.66;;;0.07;100.00
15074;BME280;7636;63.884;20.308;2023-03-20T05:14:40;62504.31;;;0.21;100.00
15074;BME280;7636;63.884;20.308;2023-03-20T05:17:07;62491.28;;;0.09;100.00
15074;BME280;7636;63.884;20.308;2023-03-20T05:19:34;62508.66;;;0.15;100.00
15074;BME280;7636;63.884;20.308;2023-03-20T05:22:00;62497.81;;;0.15;100.00
15074;BME280;7636;63.884;20.308;2023-03-20T05:24:27;62511.38;;;0.18;100.00
15074;BME280;7636;63.884;20.308;2023-03-20T05:26:54;62493.59;;;0.13;100.00
15074;BME280;7636;63.884;20.308;2023-03-20T05:29:21;62503.25;;;0.20;100.00
15074;BME280;7636;63.884;20.308;2023-03-20T05:31:48;62488.16;;;0.08;100.00
15074;BME280;7636;63.884;20.308;2023-03-20T05:34:15;62521.69;;;0.27;100.00
15074;BME280;7636;63.884;20.308;2023-03-20T05:36:41;62500.66;;;0.20;100.00
15074;BME280;7636;63.884;20.308;2023-03-20T05:39:08;62477.72;;;-0.04;100.00
15074;BME280;7636;63.884;20.308;2023-03-20T05:41:35;62504.31;;;0.11;100.00
15074;BME280;7636;63.884;20.308;2023-03-20T05:44:01;62498.47;;;0.18;100.00
15074;BME280;7636;63.884;20.308;2023-03-20T05:46:28;62529.00;;;0.48;100.00
15074;BME280;7636;63.884;20.308;2023-03-20T05:48:55;62539.59;;;0.53;100.00
15074;BME280;7636;63.884;20.308;2023-03-20T05:51:21;62547.75;;;0.51;100.00
15074;BME280;7636;63.884;20.308;2023-03-20T05:53:48;62526.16;;;0.43;100.00
15074;BME280;7636;63.884;20.308;2023-03-20T05:56:15;62552.22;;;0.68;100.00
15074;BME280;7636;63.884;20.308;2023-03-20T05:58:41;62567.84;;;0.70;100.00
15074;BME280;7636;63.884;20.308;2023-03-20T06:01:08;62557.66;;;0.73;100.00
15074;BME280;7636;63.884;20.308;2023-03-20T06:03:35;62577.09;;;0.79;100.00
15074;BME280;7636;63.884;20.308;2023-03-20T06:06:03;62584.81;;;0.98;100.00
15074;BME280;7636;63.884;20.308;2023-03-20T06:08:30;62571.63;;;0.83;100.00
15074;BME280;7636;63.884;20.308;2023-03-20T06:10:56;62571.13;;;0.83;100.00
15074;BME280;7636;63.884;20.308;2023-03-20T06:13:23;62581.44;;;0.83;100.00
15074;BME280;7636;63.884;20.308;2023-03-20T06:15:49;62577.63;;;0.79;100.00
15074;BME280;7636;63.884;20.308;2023-03-20T06:18:16;62581.44;;;0.92;100.00
15074;BME280;7636;63.884;20.308;2023-03-20T06:20:43;62604.25;;;1.04;100.00
15074;BME280;7636;63.884;20.308;2023-03-20T06:23:09;62580.34;;;0.82;100.00
15074;BME280;7636;63.884;20.308;2023-03-20T06:25:36;62585.75;;;0.96;100.00
15074;BME280;7636;63.884;20.308;2023-03-20T06:28:04;62585.22;;;0.96;100.00
15074;BME280;7636;63.884;20.308;2023-03-20T06:30:31;62595.69;;;1.08;100.00
15074;BME280;7636;63.884;20.308;2023-03-20T06:32:57;62593.09;;;1.08;100.00
15074;BME280;7636;63.884;20.308;2023-03-20T06:35:24;62611.31;;;1.20;100.00
15074;BME280;7636;63.884;20.308;2023-03-20T06:37:50;62615.91;;;1.20;100.00
15074;BME280;7636;63.884;20.308;2023-03-20T06:40:17;62633.03;;;1.40;100.00
15074;BME280;7636;63.884;20.308;2023-03-20T06:42:44;62620.69;;;1.31;100.00
15074;BME280;7636;63.884;20.308;2023-03-20T06:45:11;62622.19;;;1.21;100.00
15074;BME280;7636;63.884;20.308;2023-03-20T06:47:37;62644.47;;;1.41;100.00
15074;BME280;7636;63.884;20.308;2023-03-20T06:50:04;62652.63;;;1.59;100.00
15074;BME280;7636;63.884;20.308;2023-03-20T06:52:31;62673.94;;;1.81;100.00
15074;BME280;7636;63.884;20.308;2023-03-20T06:54:58;62664.16;;;1.72;100.00
15074;BME280;7636;63.884;20.308;2023-03-20T06:57:24;62663.63;;;1.71;100.00
15074;BME280;7636;63.884;20.308;2023-03-20T06:59:51;62696.66;;;1.99;100.00
15074;BME280;7636;63.884;20.308;2023-03-20T07:02:19;62683.72;;;1.90;100.00
15074;BME280;7636;63.884;20.308;2023-03-20T07:04:46;62714.06;;;2.06;100.00
15074;BME280;7636;63.884;20.308;2023-03-20T07:07:12;62709.19;;;2.01;100.00
15074;BME280;7636;63.884;20.308;2023-03-20T07:09:39;62733.13;;;2.24;100.00
15074;BME280;7636;63.884;20.308;2023-03-20T07:12:10;62727.78;;;2.31;100.00
15074;BME280;7636;63.884;20.308;2023-03-20T07:14:43;62740.75;;;2.31;100.00
15074;BME280;7636;63.884;20.308;2023-03-20T07:17:11;62729.84;;;2.21;100.00
15074;BME280;7636;63.884;20.308;2023-03-20T07:19:38;62750.09;;;2.51;100.00
15074;BME280;7636;63.884;20.308;2023-03-20T07:22:07;62736.38;;;2.36;100.00
15074;BME280;7636;63.884;20.308;2023-03-20T07:24:37;62760.31;;;2.58;100.00
15074;BME280;7636;63.884;20.308;2023-03-20T07:27:03;62741.41;;;2.43;100.00
15074;BME280;7636;63.884;20.308;2023-03-20T07:29:30;62769.59;;;2.57;100.00
15074;BME280;7636;63.884;20.308;2023-03-20T07:31:57;62793.53;;;2.80;100.00
15074;BME280;7636;63.884;20.308;2023-03-20T07:34:26;62794.63;;;2.81;100.00
15074;BME280;7636;63.884;20.308;2023-03-20T07:36:53;62777.72;;;2.75;100.00
15074;BME280;7636;63.884;20.308;2023-03-20T07:39:22;62795.69;;;2.82;100.00
15074;BME280;7636;63.884;20.308;2023-03-20T07:41:49;62784.25;;;2.81;100.00
15074;BME280;7636;63.884;20.308;2023-03-20T07:44:16;62794.06;;;2.90;100.00
15074;BME280;7636;63.884;20.308;2023-03-20T07:46:45;62816.94;;;3.11;100.00
15074;BME280;7636;63.884;20.308;2023-03-20T07:49:16;62837.09;;;3.20;100.00
15074;BME280;7636;63.884;20.308;2023-03-20T07:51:45;62833.28;;;3.17;100.00
15074;BME280;7636;63.884;20.308;2023-03-20T07:54:12;62847.44;;;3.30;100.00
15074;BME280;7636;63.884;20.308;2023-03-20T07:56:39;62806.03;;;3.01;100.00
15074;BME280;7636;63.884;20.308;2023-03-20T07:59:06;62875.22;;;3.55;100.00
15074;BME280;7636;63.884;20.308;2023-03-20T08:01:32;62866.63;;;3.59;100.00
15074;BME280;7636;63.884;20.308;2023-03-20T08:03:59;62893.75;;;3.73;100.00
15074;BME280;7636;63.884;20.308;2023-03-20T08:06:26;62863.78;;;3.54;100.00
15074;BME280;7636;63.884;20.308;2023-03-20T08:08:53;62845.81;;;3.38;100.00
15074;BME280;7636;63.884;20.308;2023-03-20T08:11:20;62857.91;;;3.51;100.00
15074;BME280;7636;63.884;20.308;2023-03-20T08:13:47;62879.03;;;3.59;100.00
15074;BME280;7636;63.884;20.308;2023-03-20T08:16:13;62860.25;;;3.46;100.00
15074;BME280;7636;63.884;20.308;2023-03-20T08:18:40;62877.41;;;3.57;100.00
15074;BME280;7636;63.884;20.308;2023-03-20T08:21:07;62876.31;;;3.56;97.76
15074;BME280;7636;63.884;20.308;2023-03-20T08:23:34;62924.28;;;4.01;100.00
15074;BME280;7636;63.884;20.308;2023-03-20T08:26:01;62919.94;;;3.97;100.00
15074;BME280;7636;63.884;20.308;2023-03-20T08:28:27;62901.38;;;3.89;100.00
15074;BME280;7636;63.884;20.308;2023-03-20T08:31:12;62924.78;;;4.11;100.00
15074;BME280;7636;63.884;20.308;2023-03-20T08:33:39;62939.09;;;4.27;100.00
15074;BME280;7636;63.884;20.308;2023-03-20T08:36:06;62940.06;;;4.25;100.00
15074;BME280;7636;63.884;20.308;2023-03-20T08:38:33;62991.38;;;4.63;100.00
15074;BME280;7636;63.884;20.308;2023-03-20T08:40:59;62948.78;;;4.33;96.97
15074;BME280;7636;63.884;20.308;2023-03-20T08:43:26;62935.16;;;4.21;100.00
15074;BME280;7636;63.884;20.308;2023-03-20T08:45:53;62970.63;;;4.44;100.00
15074;BME280;7636;63.884;20.308;2023-03-20T08:48:20;62934.19;;;4.22;100.00
15074;BME280;7636;63.884;20.308;2023-03-20T08:50:47;62944.97;;;4.30;91.78
15074;BME280;7636;63.884;20.308;2023-03-20T08:53:14;62992.44;;;4.74;100.00
15074;BME280;7636;63.884;20.308;2023-03-20T08:55:49;62976.72;;;4.61;95.73
15074;BME280;7636;63.884;20.308;2023-03-20T08:58:17;62993.09;;;4.77;95.59
15074;BME280;7636;63.884;20.308;2023-03-20T09:00:44;62966.91;;;4.52;100.00
15074;BME280;7636;63.884;20.308;2023-03-20T09:03:15;63011.53;;;4.82;96.27
15074;BME280;7636;63.884;20.308;2023-03-20T09:05:43;62998.97;;;4.80;89.32
15074;BME280;7636;63.884;20.308;2023-03-20T09:08:11;63032.78;;;5.11;100.00
15074;BME280;7636;63.884;20.308;2023-03-20T09:10:37;63006.59;;;4.87;92.17
15074;BME280;7636;63.884;20.308;2023-03-20T09:13:06;63008.81;;;4.79;90.62
15074;BME280;7636;63.884;20.308;2023-03-20T09:15:53;63063.94;;;5.30;89.00
15074;BME280;7636;63.884;20.308;2023-03-20T09:18:20;63033.88;;;5.12;95.59
15074;BME280;7636;63.884;20.308;2023-03-20T09:20:47;63091.78;;;5.56;95.19
15074;BME280;7636;63.884;20.308;2023-03-20T09:23:14;63095.59;;;5.59;92.27
15074;BME280;7636;63.884;20.308;2023-03-20T09:25:41;63122.34;;;5.84;96.79
15074;BME280;7636;63.884;20.308;2023-03-20T09:28:08;63128.38;;;5.99;87.98
15074;BME280;7636;63.884;20.308;2023-03-20T09:30:35;63164.41;;;6.33;89.63
15074;BME280;7636;63.884;20.308;2023-03-20T09:33:02;63156.81;;;6.16;88.76
15074;BME280;7636;63.884;20.308;2023-03-20T09:35:28;63137.63;;;6.08;83.96
15074;BME280;7636;63.884;20.308;2023-03-20T09:37:55;63134.97;;;5.96;85.35
15074;BME280;7636;63.884;20.308;2023-03-20T09:40:28;63138.78;;;5.99;85.26
15074;BME280;7636;63.884;20.308;2023-03-20T09:48:40;63083.00;;;5.57;64.93
15074;BME280;7636;63.884;20.308;2023-03-20T09:51:26;63071.41;;;5.44;74.43
15074;BME280;7636;63.884;20.308;2023-03-20T09:54:02;63096.13;;;5.69;85.01
15074;BME280;7636;63.884;20.308;2023-03-20T09:56:31;63061.19;;;5.28;71.62
15074;BME280;7636;63.884;20.308;2023-03-20T09:59:01;63148.06;;;6.08;82.46
15074;BME280;7636;63.884;20.308;2023-03-20T10:01:44;63186.31;;;6.43;73.30
15074;BME280;7636;63.884;20.308;2023-03-20T10:04:13;63170.41;;;6.38;82.98
15074;BME280;7636;63.884;20.308;2023-03-20T10:06:40;63225.63;;;6.89;83.29
15074;BME280;7636;63.884;20.308;2023-03-20T10:09:16;63203.09;;;6.66;65.28
15074;BME280;7636;63.884;20.308;2023-03-20T10:17:33;63185.22;;;6.42;65.91
15074;BME280;7636;63.884;20.308;2023-03-20T10:26:11;63145.84;;;6.15;64.38
15074;BME280;7636;63.884;20.308;2023-03-20T10:28:51;63181.34;;;6.48;61.00
15074;BME280;7636;63.884;20.308;2023-03-20T10:37:27;63269.41;;;7.20;63.76
15074;BME280;7636;63.884;20.308;2023-03-20T10:42:56;63244.81;;;6.97;56.82
15074;BME280;7636;63.884;20.308;2023-03-20T10:45:43;63232.25;;;6.86;57.99
15074;BME280;7636;63.884;20.308;2023-03-20T10:48:16;63306.56;;;7.64;66.35
15074;BME280;7636;63.884;20.308;2023-03-20T10:50:50;63332.28;;;7.88;64.93
15074;BME280;7636;63.884;20.308;2023-03-20T10:53:36;63357.47;;;8.11;59.14
15074;BME280;7636;63.884;20.308;2023-03-20T10:56:13;63263.41;;;7.14;53.59
15074;BME280;7636;63.884;20.308;2023-03-20T10:58:46;63312.59;;;7.69;58.78
15074;BME280;7636;63.884;20.308;2023-03-20T11:01:13;63369.56;;;8.12;58.75
15074;BME280;7636;63.884;20.308;2023-03-20T11:03:40;63211.44;;;6.66;50.76
15074;BME280;7636;63.884;20.308;2023-03-20T11:06:13;63295.63;;;7.54;51.33
15074;BME280;7636;63.884;20.308;2023-03-20T11:08:49;63365.56;;;8.16;59.38
15074;BME280;7636;63.884;20.308;2023-03-20T11:11:29;63436.41;;;8.74;59.13
15074;BME280;7636;63.884;20.308;2023-03-20T11:14:09;63475.31;;;9.10;61.91
15074;BME280;7636;63.884;20.308;2023-03-20T11:16:41;63466.00;;;9.01;57.24
15074;BME280;7636;63.884;20.308;2023-03-20T11:19:10;63496.06;;;9.39;52.88
15074;BME280;7636;63.884;20.308;2023-03-20T11:21:55;63444.63;;;8.81;48.32
15074;BME280;7636;63.884;20.308;2023-03-20T11:27:08;63490.66;;;9.24;49.80
15074;BME280;7636;63.884;20.308;2023-03-20T11:29:36;63468.13;;;9.13;47.45
15074;BME280;7636;63.884;20.308;2023-03-20T11:32:18;63422.16;;;8.61;48.05
15074;BME280;7636;63.884;20.308;2023-03-20T11:34:48;63494.44;;;9.37;53.47
15074;BME280;7636;63.884;20.308;2023-03-20T11:37:24;63495.00;;;9.38;44.00
15074;BME280;7636;63.884;20.308;2023-03-20T11:42:34;63428.69;;;8.76;45.17
15074;BME280;7636;63.884;20.308;2023-03-20T11:45:05;63457.72;;;9.03;53.92
15074;BME280;7636;63.884;20.308;2023-03-20T11:47:34;63509.66;;;9.49;53.04
15074;BME280;7636;63.884;20.308;2023-03-20T11:50:04;63545.47;;;9.74;54.77
15074;BME280;7636;63.884;20.308;2023-03-20T11:52:34;63549.31;;;9.78;49.55
15074;BME280;7636;63.884;20.308;2023-03-20T11:55:06;63446.63;;;8.91;43.43
15074;BME280;7636;63.884;20.308;2023-03-20T11:57:37;63403.00;;;8.43;44.77
15074;BME280;7636;63.884;20.308;2023-03-20T12:02:42;63399.94;;;8.45;49.01
15074;BME280;7636;63.884;20.308;2023-03-20T12:05:32;63459.38;;;9.05;47.12
15074;BME280;7636;63.884;20.308;2023-03-20T12:08:15;63423.78;;;8.62;47.25
15074;BME280;7636;63.884;20.308;2023-03-20T12:10:49;63399.69;;;8.40;48.85
15074;BME280;7636;63.884;20.308;2023-03-20T12:13:25;63459.78;;;9.03;52.58
15074;BME280;7636;63.884;20.308;2023-03-20T12:15:59;63456.13;;;8.92;50.44
15074;BME280;7636;63.884;20.308;2023-03-20T12:18:37;63350.91;;;8.05;42.69
15074;BME280;7636;63.884;20.308;2023-03-20T12:21:32;63332.28;;;7.88;48.88
15074;BME280;7636;63.884;20.308;2023-03-20T12:24:18;63358.03;;;8.11;53.29
15074;BME280;7636;63.884;20.308;2023-03-20T12:29:45;63359.66;;;8.13;48.92
15074;BME280;7636;63.884;20.308;2023-03-20T12:32:19;63333.41;;;7.89;44.87
15074;BME280;7636;63.884;20.308;2023-03-20T12:34:51;63354.78;;;7.99;45.32
15074;BME280;7636;63.884;20.308;2023-03-20T12:37:20;63326.81;;;7.82;46.79
15074;BME280;7636;63.884;20.308;2023-03-20T12:39:53;63336.69;;;7.92;48.48
15074;BME280;7636;63.884;20.308;2023-03-20T12:55:50;63279.28;;;7.29;50.04
15074;BME280;7636;63.884;20.308;2023-03-20T12:58:38;63226.75;;;6.81;45.05
15074;BME280;7636;63.884;20.308;2023-03-20T13:01:19;63218.53;;;6.83;47.55
15074;BME280;7636;63.884;20.308;2023-03-20T13:07:01;63212.00;;;6.67;50.58
15074;BME280;7636;63.884;20.308;2023-03-20T13:10:33;63202.00;;;6.65;51.80
15074;BME280;7636;63.884;20.308;2023-03-20T13:13:10;63173.19;;;6.31;47.76
15074;BME280;7636;63.884;20.308;2023-03-20T13:21:15;63170.47;;;6.29;52.75
15074;BME280;7636;63.884;20.308;2023-03-20T13:24:01;63171.56;;;6.30;54.26
15074;BME280;7636;63.884;20.308;2023-03-20T13:35:04;63125.09;;;5.87;47.12
15074;BME280;7636;63.884;20.308;2023-03-20T13:37:39;63118.53;;;5.81;50.36
15074;BME280;7636;63.884;20.308;2023-03-20T13:45:24;63101.59;;;5.65;53.35
15074;BME280;7636;63.884;20.308;2023-03-20T13:47:57;63074.84;;;5.40;52.20
15074;BME280;7636;63.884;20.308;2023-03-20T13:50:38;63055.72;;;5.32;53.98
15074;BME280;7636;63.884;20.308;2023-03-20T13:56:19;63079.31;;;5.56;54.83
15074;BME280;7636;63.884;20.308;2023-03-20T14:04:15;63062.38;;;5.41;53.62
15074;BME280;7636;63.884;20.308;2023-03-20T14:06:47;63077.03;;;5.42;54.23
15074;BME280;7636;63.884;20.308;2023-03-20T14:09:33;63058.47;;;5.25;50.90
15074;BME280;7636;63.884;20.308;2023-03-20T14:14:39;63048.63;;;5.26;55.56
15074;BME280;7636;63.884;20.308;2023-03-20T14:17:19;63043.84;;;5.24;55.48
15074;BME280;7636;63.884;20.308;2023-03-20T14:19:48;63044.38;;;5.24;57.65
15074;BME280;7636;63.884;20.308;2023-03-20T14:22:21;63021.91;;;4.91;56.65
15074;BME280;7636;63.884;20.308;2023-03-20T14:24:58;63015.91;;;4.86;55.51
15074;BME280;7636;63.884;20.308;2023-03-20T14:27:28;63025.72;;;4.95;57.91
15074;BME280;7636;63.884;20.308;2023-03-20T14:30:37;63009.38;;;4.80;57.42
15074;BME280;7636;63.884;20.308;2023-03-20T14:33:25;63009.38;;;4.80;60.78
15074;BME280;7636;63.884;20.308;2023-03-20T14:36:18;62979.88;;;4.62;60.77
15074;BME280;7636;63.884;20.308;2023-03-20T14:39:13;62984.25;;;4.66;62.92
15074;BME280;7636;63.884;20.308;2023-03-20T14:44:58;62983.72;;;4.56;59.62
15074;BME280;7636;63.884;20.308;2023-03-20T14:53:18;62972.81;;;4.46;62.09
15074;BME280;7636;63.884;20.308;2023-03-20T15:07:12;62950.97;;;4.35;61.33
15074;BME280;7636;63.884;20.308;2023-03-20T15:09:42;62935.28;;;4.23;61.65
15074;BME280;7636;63.884;20.308;2023-03-20T15:12:13;62914.47;;;3.92;59.20
15074;BME280;7636;63.884;20.308;2023-03-20T15:17:20;62909.00;;;3.96;61.72
15074;BME280;7636;63.884;20.308;2023-03-20T15:19:47;62890.59;;;3.82;60.71
15074;BME280;7636;63.884;20.308;2023-03-20T15:22:19;62897.00;;;3.85;59.92
15074;BME280;7636;63.884;20.308;2023-03-20T15:24:55;62898.09;;;3.86;59.35
15074;BME280;7636;63.884;20.308;2023-03-20T15:27:24;62857.22;;;3.48;60.93
15074;BME280;7636;63.884;20.308;2023-03-20T15:29:56;62871.97;;;3.52;58.75
15074;BME280;7636;63.884;20.308;2023-03-20T15:32:23;62886.13;;;3.65;62.10
15074;BME280;7636;63.884;20.308;2023-03-20T15:34:50;62883.97;;;3.63;59.16
15074;BME280;7636;63.884;20.308;2023-03-20T15:37:20;62870.31;;;3.60;60.84
15074;BME280;7636;63.884;20.308;2023-03-20T15:39:51;62851.78;;;3.43;62.95
15074;BME280;7636;63.884;20.308;2023-03-20T15:42:23;62853.97;;;3.36;62.71
15074;BME280;7636;63.884;20.308;2023-03-20T15:44:51;62834.34;;;3.27;65.16
15074;BME280;7636;63.884;20.308;2023-03-20T15:47:21;62806.06;;;2.91;65.34